TimeEDT,TemperatureF,Dew PointF,Humidity,Sea Level PressureIn,VisibilityMPH,Wind Direction,Wind SpeedMPH,Gust SpeedMPH,PrecipitationIn,Events,Conditions,WindDirDegrees,DateUTC
12:52 AM,54.0,50.0,86,29.91,10.0,West,6.9,17.3,N/A,,Overcast,270,2013-04-20 04:52:00
1:52 AM,52.0,41.0,66,29.92,10.0,NW,8.1,-,N/A,,Overcast,320,2013-04-20 05:52:00
2:52 AM,51.1,39.0,63,29.95,10.0,NNW,6.9,-,N/A,,Overcast,330,2013-04-20 06:52:00
3:52 AM,48.9,39.0,69,29.97,10.0,NNW,5.8,-,N/A,,Overcast,340,2013-04-20 07:52:00
4:52 AM,48.0,35.1,61,29.99,10.0,NNW,8.1,-,N/A,,Overcast,340,2013-04-20 08:52:00
5:52 AM,45.0,35.1,68,30.02,10.0,NNW,5.8,-,N/A,,Overcast,340,2013-04-20 09:52:00
6:52 AM,43.0,35.1,74,30.06,10.0,Calm,Calm,-,N/A,,Mostly Cloudy,0,2013-04-20 10:52:00
7:52 AM,44.1,37.0,76,30.11,10.0,North,4.6,-,N/A,,Scattered Clouds,350,2013-04-20 11:52:00
8:52 AM,48.9,33.1,54,30.13,10.0,North,8.1,-,N/A,,Scattered Clouds,350,2013-04-20 12:52:00
9:52 AM,53.1,34.0,48,30.15,10.0,NNW,9.2,-,N/A,,Partly Cloudy,340,2013-04-20 13:52:00
10:52 AM,55.0,32.0,42,30.17,10.0,North,11.5,-,N/A,,Partly Cloudy,10,2013-04-20 14:52:00
11:52 AM,55.9,32.0,40,30.17,10.0,NNE,9.2,16.1,N/A,,Partly Cloudy,30,2013-04-20 15:52:00
12:52 PM,59.0,32.0,36,30.17,10.0,North,6.9,-,N/A,,Partly Cloudy,350,2013-04-20 16:52:00
1:52 PM,59.0,30.9,35,30.15,10.0,Calm,Calm,-,N/A,,Partly Cloudy,0,2013-04-20 17:52:00
2:52 PM,60.1,32.0,35,30.15,10.0,Variable,3.5,-,N/A,,Partly Cloudy,0,2013-04-20 18:52:00
3:52 PM,63.0,28.9,28,30.13,10.0,North,6.9,-,N/A,,Partly Cloudy,360,2013-04-20 19:52:00
4:52 PM,64.0,30.0,28,30.13,10.0,NW,3.5,-,N/A,,Partly Cloudy,320,2013-04-20 20:52:00
5:52 PM,64.0,28.9,27,30.14,10.0,Calm,Calm,-,N/A,,Partly Cloudy,0,2013-04-20 21:52:00
6:52 PM,63.0,28.9,28,30.15,10.0,NNE,4.6,-,N/A,,Partly Cloudy,30,2013-04-20 22:52:00
7:52 PM,59.0,28.9,32,30.17,10.0,Calm,Calm,-,N/A,,Partly Cloudy,0,2013-04-20 23:52:00
8:52 PM,57.9,28.9,33,30.21,10.0,Variable,3.5,-,N/A,,Clear,0,2013-04-21 00:52:00
9:52 PM,52.0,34.0,50,30.24,10.0,East,3.5,-,N/A,,Clear,80,2013-04-21 01:52:00
10:52 PM,48.0,39.9,74,30.26,10.0,NW,4.6,-,N/A,,Clear,320,2013-04-21 02:52:00
11:52 PM,43.0,39.0,86,30.27,10.0,NNW,3.5,-,N/A,,Clear,340,2013-04-21 03:52:00